createdAt,value
2019-05-23T00:01:02.010Z,3.07
2019-05-23T00:03:37.978Z,3.20
2019-05-23T00:06:11.325Z,3.50
2019-05-23T00:08:41.427Z,3.57
2019-05-23T00:11:32.294Z,3.50
2019-05-23T00:14:08.669Z,3.10
2019-05-23T00:16:40.427Z,3.30
2019-05-23T00:19:11.002Z,3.27
2019-05-23T00:21:42.535Z,3.80
2019-05-23T00:24:13.109Z,3.17
2019-05-23T00:26:43.535Z,2.67
2019-05-23T00:29:14.900Z,3.30
2019-05-23T00:31:49.667Z,3.20
2019-05-23T00:34:20.042Z,3.10
2019-05-23T00:36:51.188Z,3.00
2019-05-23T00:39:22.518Z,2.90
2019-05-23T00:41:53.880Z,3.23
2019-05-23T00:44:25.326Z,3.00
2019-05-23T00:46:54.835Z,3.00
2019-05-23T00:49:26.584Z,3.03
2019-05-23T00:51:56.546Z,3.30
2019-05-23T00:54:26.961Z,3.03
2019-05-23T00:56:57.124Z,3.30
2019-05-23T00:59:27.925Z,2.73
2019-05-23T01:01:58.234Z,3.10
2019-05-23T01:04:27.934Z,3.00
2019-05-23T01:06:57.663Z,2.50
2019-05-23T01:09:27.417Z,3.00
2019-05-23T01:11:56.898Z,2.73
2019-05-23T01:14:27.378Z,2.90
2019-05-23T01:16:57.372Z,2.90
2019-05-23T01:19:27.084Z,3.60
2019-05-23T01:21:59.447Z,2.87
2019-05-23T01:24:32.538Z,2.87
2019-05-23T01:27:02.496Z,2.63
2019-05-23T01:29:39.547Z,2.90
2019-05-23T01:32:27.956Z,2.97
2019-05-23T01:34:59.064Z,3.07
2019-05-23T01:37:28.777Z,2.87
2019-05-23T01:39:58.301Z,2.60
2019-05-23T01:42:28.259Z,2.83
2019-05-23T01:44:59.940Z,3.13
2019-05-23T01:47:29.903Z,2.83
2019-05-23T01:49:59.907Z,2.80
2019-05-23T01:52:29.880Z,2.90
2019-05-23T01:55:00.016Z,2.67
2019-05-23T01:57:30.177Z,2.73
2019-05-23T02:00:09.974Z,2.53
2019-05-23T02:02:32.602Z,3.03
2019-05-23T02:05:15.284Z,3.00
2019-05-23T02:07:44.780Z,2.60
2019-05-23T02:10:15.794Z,2.70
2019-05-23T02:12:46.261Z,3.00
2019-05-23T02:15:16.725Z,2.73
2019-05-23T02:17:46.584Z,2.63
2019-05-23T02:20:18.889Z,2.83
2019-05-23T02:22:49.015Z,2.67
2019-05-23T02:25:21.868Z,2.80
2019-05-23T02:27:53.391Z,2.83
2019-05-23T02:30:34.808Z,2.40
2019-05-23T02:32:56.490Z,2.50
2019-05-23T02:35:26.989Z,3.03
2019-05-23T02:38:21.480Z,2.30
2019-05-23T02:41:09.171Z,3.03
2019-05-23T02:43:42.986Z,2.33
2019-05-23T02:46:35.595Z,2.50
2019-05-23T02:49:09.036Z,2.50
2019-05-23T02:51:39.708Z,2.50
2019-05-23T02:54:12.010Z,2.70
2019-05-23T02:56:43.026Z,2.33
2019-05-23T02:59:28.298Z,2.73
2019-05-23T03:02:43.812Z,2.70
2019-05-23T03:05:15.304Z,2.50
2019-05-23T03:07:45.361Z,2.20
2019-05-23T03:10:18.836Z,2.50
2019-05-23T03:12:49.572Z,2.77
2019-05-23T03:15:19.446Z,2.50
2019-05-23T03:17:52.590Z,2.53
2019-05-23T03:20:22.126Z,2.63
2019-05-23T03:22:57.034Z,2.70
2019-05-23T03:26:20.848Z,2.47
2019-05-23T03:28:50.298Z,2.40
2019-05-23T03:31:31.946Z,3.10
2019-05-23T03:34:00.096Z,2.13
2019-05-23T03:36:30.464Z,3.80
2019-05-23T03:39:00.001Z,3.03
2019-05-23T03:41:30.248Z,2.67
2019-05-23T03:44:01.509Z,2.40
2019-05-23T03:46:32.415Z,3.07
2019-05-23T03:49:02.521Z,2.30
2019-05-23T03:51:32.060Z,2.40
2019-05-23T03:54:04.307Z,3.00
2019-05-23T03:56:35.064Z,2.50
2019-05-23T03:59:06.901Z,2.50
2019-05-23T04:01:47.807Z,2.73
2019-05-23T04:04:09.151Z,2.53
2019-05-23T04:06:38.624Z,2.73
2019-05-23T04:09:10.139Z,2.60
2019-05-23T04:11:40.190Z,2.90
2019-05-23T04:14:10.219Z,2.93
2019-05-23T04:16:40.703Z,3.00
2019-05-23T04:19:10.207Z,2.70
2019-05-23T04:21:39.612Z,2.90
2019-05-23T04:24:09.125Z,3.27
2019-05-23T04:26:39.757Z,2.83
2019-05-23T04:29:10.524Z,3.13
2019-05-23T04:31:40.168Z,2.50
2019-05-23T04:34:09.731Z,2.83
2019-05-23T04:36:39.998Z,2.83
2019-05-23T04:39:10.749Z,2.47
2019-05-23T04:41:40.283Z,2.70
2019-05-23T04:44:10.344Z,2.50
2019-05-23T04:46:40.379Z,3.10
2019-05-23T04:49:11.111Z,2.90
2019-05-23T04:51:41.625Z,2.80
2019-05-23T04:54:11.841Z,3.17
2019-05-23T04:56:41.635Z,2.93
2019-05-23T04:59:11.286Z,3.20
2019-05-23T05:01:40.771Z,2.93
2019-05-23T05:04:10.357Z,3.03
2019-05-23T05:06:39.942Z,3.30
2019-05-23T05:09:11.417Z,3.70
2019-05-23T05:11:41.270Z,3.40
2019-05-23T05:14:10.768Z,3.20
2019-05-23T05:16:42.878Z,3.27
2019-05-23T05:19:12.589Z,3.40
2019-05-23T05:21:42.311Z,3.40
2019-05-23T05:24:11.803Z,3.60
2019-05-23T05:26:41.685Z,3.20
2019-05-23T05:29:12.039Z,4.27
2019-05-23T05:31:41.759Z,3.10
2019-05-23T05:34:11.275Z,3.20
2019-05-23T05:36:41.738Z,3.40
2019-05-23T05:39:12.939Z,3.17
2019-05-23T05:41:43.198Z,3.30
2019-05-23T05:44:12.612Z,3.93
2019-05-23T05:46:42.254Z,3.20
2019-05-23T05:49:12.169Z,3.77
2019-05-23T05:51:42.295Z,3.50
2019-05-23T05:54:12.243Z,2.90
2019-05-23T05:56:41.915Z,3.53
2019-05-23T05:59:11.411Z,3.10
2019-05-23T06:01:41.025Z,2.93
2019-05-23T06:04:10.751Z,2.37
2019-05-23T06:06:45.454Z,2.87
2019-05-23T06:09:18.536Z,2.47
2019-05-23T06:11:48.439Z,2.73
2019-05-23T06:14:18.049Z,3.00
2019-05-23T06:16:47.876Z,2.80
2019-05-23T06:19:17.624Z,2.40
2019-05-23T06:21:47.620Z,2.80
2019-05-23T06:24:17.353Z,2.70
2019-05-23T06:26:47.006Z,3.27
2019-05-23T06:29:16.633Z,2.77
2019-05-23T06:31:46.493Z,2.33
2019-05-23T06:34:16.442Z,2.60
2019-05-23T06:36:46.485Z,3.00
2019-05-23T06:39:17.184Z,2.13
2019-05-23T06:41:47.314Z,2.00
2019-05-23T06:44:18.824Z,2.10
2019-05-23T06:46:48.650Z,2.30
2019-05-23T06:49:18.240Z,1.90
2019-05-23T06:51:47.759Z,1.80
2019-05-23T06:54:17.679Z,2.00
2019-05-23T06:56:47.286Z,1.90
2019-05-23T06:59:16.943Z,2.07
2019-05-23T07:01:46.502Z,1.80
2019-05-23T07:04:16.022Z,1.87
2019-05-23T07:06:45.654Z,1.77
2019-05-23T07:09:18.227Z,1.87
2019-05-23T07:11:48.077Z,1.80
2019-05-23T07:14:17.609Z,1.80
2019-05-23T07:16:50.182Z,2.00
2019-05-23T07:19:19.622Z,1.80
2019-05-23T07:21:49.374Z,2.47
2019-05-23T07:24:19.505Z,2.00
2019-05-23T07:26:49.264Z,2.17
2019-05-23T07:29:18.745Z,2.00
2019-05-23T07:31:48.295Z,3.00
2019-05-23T07:34:18.838Z,2.37
2019-05-23T07:36:48.597Z,2.57
2019-05-23T07:39:19.268Z,2.00
2019-05-23T07:41:49.076Z,2.60
2019-05-23T07:44:18.932Z,3.03
2019-05-23T07:46:48.680Z,3.33
2019-05-23T07:49:18.369Z,3.00
2019-05-23T07:51:48.989Z,3.20
2019-05-23T07:54:27.167Z,3.13
2019-05-23T07:56:57.132Z,3.07
2019-05-23T07:59:27.147Z,2.80
2019-05-23T08:02:09.043Z,2.80
2019-05-23T08:04:38.867Z,2.90
2019-05-23T08:07:10.195Z,3.00
2019-05-23T08:09:40.380Z,2.53
2019-05-23T08:12:10.172Z,2.90
2019-05-23T08:14:39.979Z,2.37
2019-05-23T08:17:10.376Z,2.60
2019-05-23T08:19:49.075Z,2.70
2019-05-23T08:22:11.696Z,2.33
2019-05-23T08:24:41.473Z,2.07
2019-05-23T08:27:11.952Z,2.10
2019-05-23T08:29:42.274Z,2.10
2019-05-23T08:32:12.457Z,1.93
2019-05-23T08:34:43.052Z,2.50
2019-05-23T08:37:13.992Z,2.47
2019-05-23T08:39:44.481Z,2.83
2019-05-23T08:42:15.198Z,2.10
2019-05-23T08:44:45.338Z,2.10
2019-05-23T08:47:15.115Z,2.30
2019-05-23T08:49:45.299Z,2.20
2019-05-23T08:52:14.871Z,1.70
2019-05-23T08:54:45.702Z,2.23
2019-05-23T08:57:15.576Z,1.80
2019-05-23T08:59:46.031Z,2.10
2019-05-23T09:02:16.769Z,1.83
2019-05-23T09:05:03.462Z,2.50
2019-05-23T09:07:18.966Z,1.60
2019-05-23T09:09:49.263Z,1.70
2019-05-23T09:12:20.285Z,1.70
2019-05-23T09:14:49.999Z,1.90
2019-05-23T09:17:19.984Z,1.80
2019-05-23T09:19:49.667Z,1.60
2019-05-23T09:22:19.174Z,1.50
2019-05-23T09:24:48.875Z,1.70
2019-05-23T09:27:18.580Z,1.80
2019-05-23T09:29:48.468Z,2.37
2019-05-23T09:32:17.993Z,1.90
2019-05-23T09:34:47.648Z,1.90
2019-05-23T09:37:18.483Z,2.00
2019-05-23T09:39:49.438Z,1.97
2019-05-23T09:42:18.943Z,2.37
2019-05-23T09:44:48.585Z,2.00
2019-05-23T09:47:18.061Z,1.80
2019-05-23T09:49:55.347Z,1.80
2019-05-23T09:52:19.832Z,1.90
2019-05-23T09:54:49.392Z,1.80
2019-05-23T09:57:19.221Z,1.67
2019-05-23T09:59:48.892Z,2.00
2019-05-23T10:02:19.306Z,1.90
2019-05-23T10:04:48.965Z,2.50
2019-05-23T10:07:18.668Z,2.10
2019-05-23T10:09:48.284Z,1.90
2019-05-23T10:12:17.843Z,2.43
2019-05-23T10:14:47.427Z,2.20
2019-05-23T10:17:17.004Z,1.77
2019-05-23T10:19:46.462Z,2.30
2019-05-23T10:22:16.619Z,2.10
2019-05-23T10:24:46.089Z,3.20
2019-05-23T10:27:15.880Z,1.80
2019-05-23T10:29:45.324Z,1.93
2019-05-23T10:32:15.781Z,1.80
2019-05-23T10:34:45.256Z,1.87
2019-05-23T10:37:16.274Z,2.30
2019-05-23T10:39:50.277Z,3.03
2019-05-23T10:42:20.013Z,2.20
2019-05-23T10:44:49.586Z,1.90
2019-05-23T10:47:19.361Z,2.00
2019-05-23T10:49:49.440Z,2.60
2019-05-23T10:52:19.251Z,3.00
2019-05-23T10:54:48.735Z,2.10
2019-05-23T10:57:18.651Z,2.92
2019-05-23T10:59:48.172Z,2.58
2019-05-23T11:02:18.675Z,2.90
2019-05-23T11:04:48.124Z,1.70
2019-05-23T11:07:17.930Z,1.90
2019-05-23T11:09:47.741Z,2.15
2019-05-23T11:12:17.585Z,2.05
2019-05-23T11:14:47.536Z,1.90
2019-05-23T11:17:17.396Z,1.90
2019-05-23T11:19:46.888Z,1.90
2019-05-23T11:22:17.124Z,2.00
2019-05-23T11:24:48.283Z,1.60
2019-05-23T11:27:19.864Z,1.82
2019-05-23T11:29:49.534Z,2.10
2019-05-23T11:32:20.446Z,2.50
2019-05-23T11:34:50.526Z,2.60
2019-05-23T11:37:23.469Z,2.10
2019-05-23T11:39:53.256Z,1.87
2019-05-23T11:42:22.955Z,2.00
2019-05-23T11:44:52.971Z,1.90
2019-05-23T11:47:22.869Z,2.23
2019-05-23T11:49:52.623Z,1.90
2019-05-23T11:52:22.365Z,2.03
2019-05-23T11:54:52.046Z,2.53
2019-05-23T11:57:21.684Z,2.07
2019-05-23T11:59:51.486Z,2.40
2019-05-23T12:02:34.695Z,2.23
2019-05-23T12:05:08.137Z,1.70
2019-05-23T12:07:37.563Z,1.80
2019-05-23T12:10:07.719Z,1.70
2019-05-23T12:12:37.381Z,1.53
2019-05-23T12:15:10.557Z,1.60
2019-05-23T12:17:40.358Z,1.80
2019-05-23T12:20:10.625Z,1.90
2019-05-23T12:22:40.477Z,1.70
2019-05-23T12:25:22.033Z,2.10
2019-05-23T12:27:43.221Z,2.40
2019-05-23T12:30:14.042Z,1.70
2019-05-23T12:32:43.639Z,1.93
2019-05-23T12:35:13.409Z,1.67
2019-05-23T12:37:43.161Z,4.00
2019-05-23T12:40:13.332Z,2.97
2019-05-23T12:42:43.202Z,1.70
2019-05-23T12:45:13.014Z,2.30
2019-05-23T12:47:50.863Z,3.50
2019-05-23T12:50:23.443Z,2.20
2019-05-23T12:52:53.107Z,3.97
2019-05-23T12:55:22.746Z,1.77
2019-05-23T12:57:52.195Z,3.47
2019-05-23T13:00:55.775Z,3.90
2019-05-23T13:03:25.463Z,2.90
2019-05-23T13:05:55.192Z,2.00
2019-05-23T13:08:25.273Z,2.00
2019-05-23T13:10:55.120Z,2.00
2019-05-23T13:13:25.452Z,1.90
2019-05-23T13:15:54.882Z,2.70
2019-05-23T13:18:25.093Z,2.00
2019-05-23T13:20:58.684Z,1.70
2019-05-23T13:23:26.352Z,2.00
2019-05-23T13:25:55.928Z,2.30
2019-05-23T13:28:25.644Z,1.93
2019-05-23T13:30:55.124Z,2.10
2019-05-23T13:33:25.096Z,2.10
2019-05-23T13:35:54.845Z,1.97
2019-05-23T13:38:24.563Z,2.10
2019-05-23T13:40:54.317Z,2.03
2019-05-23T13:43:24.032Z,1.90
2019-05-23T13:45:53.643Z,1.77
2019-05-23T13:48:27.244Z,1.90
2019-05-23T13:50:54.505Z,1.90
2019-05-23T13:53:23.951Z,2.00
2019-05-23T13:55:53.531Z,1.57
2019-05-23T13:58:22.967Z,1.83
2019-05-23T14:00:52.685Z,1.33
2019-05-23T14:03:22.986Z,2.40
2019-05-23T14:05:52.468Z,0.90
2019-05-23T14:08:21.898Z,1.00
2019-05-23T14:10:52.076Z,1.20
2019-05-23T14:13:22.036Z,1.33
2019-05-23T14:15:52.765Z,1.40
2019-05-23T14:18:22.931Z,0.80
2019-05-23T14:20:52.515Z,1.00
2019-05-23T14:23:26.616Z,1.10
2019-05-23T14:25:57.159Z,0.80
2019-05-23T14:28:27.333Z,1.33
2019-05-23T14:31:14.432Z,1.10
2019-05-23T14:34:03.340Z,1.00
2019-05-23T14:36:55.425Z,1.30
2019-05-23T14:39:29.776Z,1.00
2019-05-23T14:42:17.321Z,1.10
2019-05-23T14:44:47.282Z,1.10
2019-05-23T14:47:36.295Z,1.40
2019-05-23T14:50:27.461Z,1.00
2019-05-23T14:52:58.549Z,2.90
2019-05-23T14:55:28.246Z,1.10
2019-05-23T14:57:58.428Z,1.13
2019-05-23T15:00:29.197Z,1.00
2019-05-23T15:02:58.693Z,0.80
2019-05-23T15:05:28.940Z,1.30
2019-05-23T15:07:58.567Z,1.20
2019-05-23T15:10:28.677Z,1.63
2019-05-23T15:12:58.212Z,1.10
2019-05-23T15:15:28.077Z,1.23
2019-05-23T15:17:57.603Z,1.40
2019-05-23T15:20:27.294Z,1.30
2019-05-23T15:22:59.821Z,1.20
2019-05-23T15:25:28.019Z,1.20
2019-05-23T15:27:57.565Z,1.10
2019-05-23T15:30:27.093Z,1.40
2019-05-23T15:32:56.516Z,1.30
2019-05-23T15:35:26.124Z,1.20
2019-05-23T15:37:55.603Z,2.90
2019-05-23T15:40:26.103Z,1.70
2019-05-23T15:42:55.576Z,1.60
2019-05-23T15:45:25.080Z,2.70
2019-05-23T15:47:55.002Z,1.17
2019-05-23T15:50:28.710Z,1.27
2019-05-23T15:53:04.248Z,1.50
2019-05-23T15:55:42.139Z,1.40
2019-05-23T15:58:22.978Z,1.30
2019-05-23T16:01:08.800Z,1.90
2019-05-23T16:03:42.100Z,1.70
2019-05-23T16:06:14.848Z,1.70
2019-05-23T16:08:44.927Z,1.53
2019-05-23T16:11:17.418Z,1.33
2019-05-23T16:13:45.682Z,1.60
2019-05-23T16:16:15.456Z,2.87
2019-05-23T16:18:45.689Z,2.20
2019-05-23T16:21:15.502Z,1.83
2019-05-23T16:23:45.279Z,1.60
2019-05-23T16:26:14.768Z,2.47
2019-05-23T16:28:44.280Z,1.80
2019-05-23T16:31:14.154Z,1.70
2019-05-23T16:33:44.118Z,2.20
2019-05-23T16:36:13.836Z,1.47
2019-05-23T16:38:43.450Z,5.17
2019-05-23T16:41:13.239Z,2.70
2019-05-23T16:43:42.677Z,1.80
2019-05-23T16:46:12.184Z,2.20
2019-05-23T16:48:42.673Z,2.00
2019-05-23T16:51:12.235Z,2.00
2019-05-23T16:53:42.102Z,1.37
2019-05-23T16:56:16.734Z,2.40
2019-05-23T16:59:03.594Z,2.10
2019-05-23T17:01:56.067Z,2.40
2019-05-23T17:04:26.395Z,1.70
2019-05-23T17:07:01.440Z,1.97
2019-05-23T17:09:37.159Z,9.03
2019-05-23T17:12:31.564Z,2.60
2019-05-23T17:15:07.097Z,1.77
2019-05-23T17:18:05.041Z,2.30
2019-05-23T17:20:52.362Z,1.57
2019-05-23T17:23:33.661Z,1.80
2019-05-23T17:26:09.643Z,2.30
2019-05-23T17:28:45.451Z,1.60
2019-05-23T17:31:17.494Z,1.60
2019-05-23T17:33:47.137Z,1.40
2019-05-23T17:36:16.796Z,1.70
2019-05-23T17:38:46.326Z,1.60
2019-05-23T17:41:16.179Z,1.70
2019-05-23T17:43:45.798Z,1.70
2019-05-23T17:46:15.629Z,1.70
2019-05-23T17:48:45.151Z,1.60
2019-05-23T17:51:15.078Z,1.70
2019-05-23T17:53:44.534Z,1.63
2019-05-23T17:56:14.421Z,2.00
2019-05-23T17:58:44.229Z,1.93
2019-05-23T18:01:13.984Z,1.57
2019-05-23T18:03:43.686Z,1.70
2019-05-23T18:06:13.301Z,1.97
2019-05-23T18:08:43.086Z,1.80
2019-05-23T18:11:12.669Z,2.00
2019-05-23T18:13:42.777Z,2.50
2019-05-23T18:16:13.363Z,2.13
2019-05-23T18:18:43.383Z,3.50
2019-05-23T18:21:13.090Z,2.60
2019-05-23T18:23:42.538Z,2.07
2019-05-23T18:26:12.147Z,4.03
2019-05-23T18:28:42.067Z,1.83
2019-05-23T18:31:16.460Z,4.20
2019-05-23T18:33:46.307Z,2.50
2019-05-23T18:36:15.959Z,4.00
2019-05-23T18:38:45.743Z,3.07
2019-05-23T18:41:15.459Z,1.50
2019-05-23T18:43:46.539Z,1.50
2019-05-23T18:46:24.191Z,1.67
2019-05-23T18:48:54.406Z,1.80
2019-05-23T18:51:23.889Z,1.90
2019-05-23T18:53:53.335Z,2.80
2019-05-23T18:56:23.240Z,3.03
2019-05-23T18:58:52.662Z,1.70
2019-05-23T19:01:24.770Z,1.60
2019-05-23T19:03:54.478Z,1.57
2019-05-23T19:06:24.637Z,1.70
2019-05-23T19:08:54.444Z,1.80
2019-05-23T19:11:24.060Z,1.70
2019-05-23T19:13:53.599Z,1.77
2019-05-23T19:16:23.195Z,3.87
2019-05-23T19:18:52.685Z,1.60
2019-05-23T19:21:22.830Z,2.00
2019-05-23T19:23:52.550Z,1.73
2019-05-23T19:26:22.773Z,1.80
2019-05-23T19:28:52.484Z,2.77
2019-05-23T19:31:22.094Z,2.17
2019-05-23T19:33:52.526Z,2.10
2019-05-23T19:36:22.456Z,1.70
2019-05-23T19:38:52.242Z,2.20
2019-05-23T19:41:36.028Z,2.00
2019-05-23T19:43:53.942Z,1.90
2019-05-23T19:46:23.648Z,1.90
2019-05-23T19:48:54.419Z,2.10
2019-05-23T19:51:23.975Z,2.00
2019-05-23T19:53:53.974Z,1.90
2019-05-23T19:56:23.566Z,2.37
2019-05-23T19:58:53.063Z,2.40
2019-05-23T20:01:22.552Z,2.53
2019-05-23T20:03:52.284Z,2.50
2019-05-23T20:06:21.953Z,2.60
2019-05-23T20:08:52.527Z,2.17
2019-05-23T20:11:22.238Z,2.60
2019-05-23T20:13:51.705Z,2.40
2019-05-23T20:16:21.203Z,2.33
2019-05-23T20:18:51.216Z,2.37
2019-05-23T20:21:20.693Z,2.50
2019-05-23T20:23:50.130Z,2.13
2019-05-23T20:26:32.247Z,2.70
2019-05-23T20:29:03.418Z,2.40
2019-05-23T20:31:33.097Z,5.17
2019-05-23T20:34:06.456Z,2.63
2019-05-23T20:36:34.657Z,2.50
2019-05-23T20:39:06.198Z,2.40
2019-05-23T20:41:37.185Z,2.97
2019-05-23T20:44:06.856Z,2.67
2019-05-23T20:46:36.673Z,2.97
2019-05-23T20:49:06.258Z,3.20
2019-05-23T20:51:36.616Z,3.00
2019-05-23T20:54:06.983Z,2.93
2019-05-23T20:56:36.489Z,4.00
2019-05-23T20:59:07.020Z,4.10
2019-05-23T21:01:39.640Z,3.00
2019-05-23T21:04:09.528Z,3.70
2019-05-23T21:06:39.032Z,3.40
2019-05-23T21:09:09.416Z,3.50
2019-05-23T21:11:38.872Z,3.27
2019-05-23T21:14:08.610Z,3.40
2019-05-23T21:16:45.645Z,3.00
2019-05-23T21:19:15.217Z,3.53
2019-05-23T21:21:44.822Z,3.93
2019-05-23T21:24:14.463Z,3.63
2019-05-23T21:26:44.100Z,3.33
2019-05-23T21:29:13.643Z,3.63
2019-05-23T21:31:43.179Z,3.50
2019-05-23T21:34:12.723Z,3.23
2019-05-23T21:36:42.409Z,4.07
2019-05-23T21:39:12.925Z,4.20
2019-05-23T21:41:42.843Z,4.20
2019-05-23T21:44:12.304Z,3.70
2019-05-23T21:46:42.099Z,3.90
2019-05-23T21:49:11.603Z,4.37
2019-05-23T21:51:41.177Z,4.27
2019-05-23T21:54:11.061Z,4.13
2019-05-23T21:56:40.539Z,4.30
2019-05-23T21:59:10.086Z,4.30
2019-05-23T22:01:55.288Z,4.30
2019-05-23T22:04:30.799Z,4.17
2019-05-23T22:07:07.707Z,4.40
2019-05-23T22:09:37.449Z,4.40
2019-05-23T22:12:10.009Z,4.13
2019-05-23T22:14:40.092Z,3.70
2019-05-23T22:17:09.595Z,4.00
2019-05-23T22:19:39.151Z,3.83
2019-05-23T22:22:08.737Z,4.50
2019-05-23T22:24:38.515Z,3.80
2019-05-23T22:27:10.066Z,3.70
2019-05-23T22:29:39.805Z,4.10
2019-05-23T22:32:10.455Z,3.77
2019-05-23T22:35:05.016Z,3.70
2019-05-23T22:37:34.550Z,4.10
2019-05-23T22:40:05.685Z,3.67
2019-05-23T22:42:36.623Z,3.40
2019-05-23T22:45:11.449Z,3.83
2019-05-23T22:47:40.968Z,3.50
2019-05-23T22:50:10.578Z,3.83
2019-05-23T22:52:40.085Z,4.00
2019-05-23T22:55:09.692Z,3.77
2019-05-23T22:57:39.198Z,3.50
2019-05-23T23:00:09.102Z,4.30
2019-05-23T23:02:38.587Z,3.50
2019-05-23T23:05:08.204Z,3.60
2019-05-23T23:07:38.044Z,3.33
2019-05-23T23:10:08.086Z,3.70
2019-05-23T23:12:37.547Z,3.70
2019-05-23T23:15:07.756Z,3.40
2019-05-23T23:17:37.323Z,4.03
2019-05-23T23:20:07.644Z,3.73
2019-05-23T23:22:37.315Z,3.90
2019-05-23T23:25:06.998Z,3.50
2019-05-23T23:27:36.527Z,3.90
2019-05-23T23:30:06.547Z,4.03
2019-05-23T23:32:36.034Z,3.77
2019-05-23T23:35:05.762Z,3.80
2019-05-23T23:37:35.253Z,3.97
2019-05-23T23:40:05.370Z,3.90
2019-05-23T23:42:35.226Z,3.83
2019-05-23T23:45:22.975Z,3.97
2019-05-23T23:48:10.488Z,3.73
2019-05-23T23:50:57.972Z,3.90
2019-05-23T23:53:45.324Z,4.03
2019-05-23T23:56:33.248Z,4.03
2019-05-23T23:59:02.098Z,4.17
